Time;durP1;ratioP1;P1;durP2;ratioP2;P2;SDS_P1;SDS_P2;PMS_P1;PMS_P2;Temp;Humidity;BMP_temperature;BMP_pressure;BME280_temperature;BME280_humidity;BME280_pressure;Samples;Min_cycle;Max_cycle;Signal;HPM_P1;HPM_P2
2022/06/17 00:00:28;;;;;;;3.77;3.20;;;21.00;53.20;;;;;;5073254;28;20448;-75
2022/06/17 00:02:55;;;;;;;3.03;2.83;;;21.00;53.10;;;;;;5073209;28;20460;-75
2022/06/17 00:05:22;;;;;;;4.17;3.20;;;21.00;53.20;;;;;;5073287;28;20446;-74
2022/06/17 00:07:49;;;;;;;5.83;3.90;;;21.00;53.30;;;;;;5073316;28;20440;-74
2022/06/17 00:10:23;;;;;;;3.70;3.33;;;21.00;53.50;;;;;;5072989;28;20436;-74
2022/06/17 00:12:50;;;;;;;5.30;2.90;;;21.00;53.60;;;;;;5073134;28;20472;-75
2022/06/17 00:15:18;;;;;;;4.07;2.97;;;21.00;53.60;;;;;;5073196;28;20455;-74
2022/06/17 00:17:49;;;;;;;4.03;3.10;;;21.00;53.60;;;;;;5073582;28;20449;-74
2022/06/17 00:20:20;;;;;;;3.27;3.07;;;20.90;53.70;;;;;;5073471;28;20460;-72
2022/06/17 00:22:47;;;;;;;5.87;3.17;;;20.90;53.90;;;;;;5073270;28;20472;-72
2022/06/17 00:25:24;;;;;;;4.67;3.50;;;20.80;53.90;;;;;;5072875;28;20968;-72
2022/06/17 00:27:51;;;;;;;4.23;2.57;;;20.70;54.10;;;;;;5073033;28;20428;-72
2022/06/17 00:30:20;;;;;;;3.40;3.10;;;20.70;54.20;;;;;;5073526;28;20448;-72
2022/06/17 00:32:47;;;;;;;3.80;3.20;;;20.50;54.10;;;;;;5076300;28;20977;-72
2022/06/17 00:35:14;;;;;;;3.50;3.03;;;20.40;54.40;;;;;;5076441;28;20839;-72
2022/06/17 00:37:41;;;;;;;6.03;3.33;;;20.30;54.60;;;;;;5076674;28;20449;-72
2022/06/17 00:40:15;;;;;;;4.40;3.63;;;20.10;54.70;;;;;;5076546;28;20456;-72
2022/06/17 00:42:44;;;;;;;4.83;3.10;;;20.10;55.30;;;;;;5076238;28;20981;-73
2022/06/17 00:45:19;;;;;;;3.80;3.50;;;20.00;55.40;;;;;;5076559;28;20432;-73
2022/06/17 00:47:52;;;;;;;4.50;3.97;;;20.00;55.50;;;;;;5076112;28;20921;-72
2022/06/17 00:50:29;;;;;;;5.40;3.83;;;20.10;55.80;;;;;;5076135;28;20867;-72
2022/06/17 00:53:05;;;;;;;6.87;3.53;;;20.00;55.70;;;;;;5076232;28;20463;-72
2022/06/17 00:55:37;;;;;;;4.50;4.10;;;20.00;55.80;;;;;;5076076;28;20920;-72
2022/06/17 00:58:15;;;;;;;3.87;3.57;;;20.10;55.90;;;;;;5076290;28;20505;-72
2022/06/17 01:00:42;;;;;;;5.67;3.43;;;20.10;56.10;;;;;;5076245;28;20429;-72
2022/06/17 01:03:15;;;;;;;3.97;3.67;;;20.00;56.30;;;;;;5076080;28;20472;-72
2022/06/17 01:05:45;;;;;;;5.60;4.00;;;20.00;56.40;;;;;;5076199;28;20424;-73
2022/06/17 01:11:05;;;;;;;3.77;3.53;;;19.90;56.90;;;;;;5075504;28;20425;-72
2022/06/17 01:13:34;;;;;;;3.30;3.10;;;19.80;57.10;;;;;;5075540;28;20477;-72
2022/06/17 01:16:01;;;;;;;3.97;3.30;;;19.80;57.20;;;;;;5075939;28;20812;-72
2022/06/17 01:18:31;;;;;;;3.50;3.20;;;19.80;57.40;;;;;;5075927;28;20455;-72
2022/06/17 01:21:03;;;;;;;3.00;2.80;;;19.80;57.60;;;;;;5076068;28;20855;-72
2022/06/17 01:23:32;;;;;;;9.20;3.10;;;19.80;57.60;;;;;;5075868;28;20464;-72
2022/06/17 01:25:58;;;;;;;4.10;3.50;;;19.80;57.60;;;;;;5075864;28;20449;-72
2022/06/17 01:28:25;;;;;;;6.37;3.37;;;19.90;57.70;;;;;;5075807;28;20459;-72
2022/06/17 01:30:54;;;;;;;4.07;3.77;;;19.90;57.80;;;;;;5075837;28;20451;-72
2022/06/17 01:33:26;;;;;;;4.60;3.60;;;19.90;58.30;;;;;;5075790;28;20542;-72
2022/06/17 01:35:58;;;;;;;3.50;3.17;;;19.80;57.90;;;;;;5076177;28;20905;-72
2022/06/17 01:38:26;;;;;;;4.60;3.73;;;19.70;58.00;;;;;;5075997;28;20436;-72
2022/06/17 01:40:55;;;;;;;4.10;3.67;;;19.60;58.00;;;;;;5075769;28;20447;-72
2022/06/17 01:43:27;;;;;;;4.80;4.40;;;19.60;58.40;;;;;;5076032;28;20471;-72
2022/06/17 01:45:59;;;;;;;6.23;4.53;;;19.50;58.40;;;;;;5076803;28;20928;-72
2022/06/17 01:48:28;;;;;;;5.10;3.50;;;19.50;58.80;;;;;;5077616;28;20425;-72
2022/06/17 01:50:57;;;;;;;4.30;4.00;;;19.40;58.90;;;;;;5078227;28;20451;-72
2022/06/17 01:53:29;;;;;;;5.60;3.80;;;19.40;58.90;;;;;;5085192;22;20437;-71
2022/06/17 01:56:01;;;;;;;7.07;4.63;;;19.40;59.00;;;;;;5058216;28;20426;-72
2022/06/17 01:58:32;;;;;;;4.77;4.27;;;19.30;59.10;;;;;;5055184;28;20434;-72
2022/06/17 02:01:01;;;;;;;9.67;4.47;;;19.20;59.20;;;;;;5055065;28;20430;-72
2022/06/17 02:03:33;;;;;;;6.17;4.27;;;19.20;59.40;;;;;;5055029;28;20462;-72
2022/06/17 02:06:06;;;;;;;7.50;3.70;;;19.10;59.70;;;;;;5055118;28;20436;-72
2022/06/17 02:08:33;;;;;;;5.23;4.20;;;19.00;59.80;;;;;;5054946;28;20432;-72
2022/06/17 02:11:04;;;;;;;4.73;4.23;;;19.00;59.90;;;;;;5054974;28;20437;-72
2022/06/17 02:13:33;;;;;;;4.30;4.00;;;19.00;59.90;;;;;;5054747;28;20465;-72
2022/06/17 02:16:02;;;;;;;4.23;3.93;;;18.90;59.90;;;;;;5054846;28;20433;-72
2022/06/17 02:18:29;;;;;;;4.60;4.20;;;18.90;59.90;;;;;;5054794;28;20449;-72
2022/06/17 02:20:59;;;;;;;4.50;4.10;;;18.90;59.90;;;;;;5054657;28;20448;-72
2022/06/17 02:23:28;;;;;;;5.57;3.70;;;18.90;59.80;;;;;;5054257;28;20848;-72
2022/06/17 02:25:57;;;;;;;9.27;4.37;;;18.90;59.70;;;;;;5054677;28;20486;-72
2022/06/17 02:28:29;;;;;;;5.60;4.80;;;18.90;59.70;;;;;;5054451;28;20441;-72
2022/06/17 02:30:58;;;;;;;5.67;4.43;;;19.00;59.70;;;;;;5054506;28;20461;-72
2022/06/17 02:33:27;;;;;;;5.20;4.70;;;19.00;59.80;;;;;;5054343;28;20527;-72
2022/06/17 02:35:58;;;;;;;5.30;4.23;;;19.00;59.80;;;;;;5054459;28;20442;-72
2022/06/17 02:38:29;;;;;;;4.60;4.30;;;19.00;59.90;;;;;;5054426;28;20562;-72
2022/06/17 02:41:00;;;;;;;7.03;4.83;;;19.00;59.90;;;;;;5054377;28;20433;-72
2022/06/17 02:43:30;;;;;;;5.00;4.47;;;19.00;60.90;;;;;;5054169;28;20478;-71
2022/06/17 02:46:02;;;;;;;7.20;4.60;;;18.90;60.40;;;;;;5054030;28;20437;-71
2022/06/17 02:48:36;;;;;;;5.33;4.60;;;18.80;60.30;;;;;;5054211;28;20437;-72
2022/06/17 02:51:03;;;;;;;4.90;4.40;;;18.80;60.50;;;;;;5054279;28;20444;-72
2022/06/17 02:53:33;;;;;;;4.90;4.50;;;18.80;60.70;;;;;;5056681;28;20476;-72
2022/06/17 02:56:03;;;;;;;4.87;4.30;;;18.70;60.60;;;;;;5074527;28;20440;-72
2022/06/17 02:58:42;;;;;;;5.40;4.30;;;18.70;60.70;;;;;;5074021;28;20903;-72
2022/06/17 03:01:17;;;;;;;7.37;4.07;;;18.70;60.90;;;;;;5074041;28;20443;-72
2022/06/17 03:03:45;;;;;;;4.80;4.40;;;18.70;61.00;;;;;;5074261;28;20486;-72
2022/06/17 03:06:17;;;;;;;4.90;4.50;;;18.70;61.10;;;;;;5073601;28;20814;-72
2022/06/17 03:08:48;;;;;;;4.63;4.00;;;18.70;61.00;;;;;;5073863;28;20439;-72
2022/06/17 03:11:15;;;;;;;5.10;4.70;;;18.70;61.20;;;;;;5073471;28;20804;-72
2022/06/17 03:13:48;;;;;;;6.20;4.43;;;18.70;61.30;;;;;;5073785;28;20477;-71
2022/06/17 03:16:17;;;;;;;6.20;4.83;;;18.80;61.70;;;;;;5073817;28;20439;-71
2022/06/17 03:18:45;;;;;;;4.77;4.23;;;18.70;61.80;;;;;;5073619;28;20441;-72
2022/06/17 03:21:12;;;;;;;4.90;4.50;;;18.70;62.00;;;;;;5073711;28;20452;-72
2022/06/17 03:23:49;;;;;;;7.07;6.13;;;18.70;62.30;;;;;;5073529;28;20494;-72
2022/06/17 03:26:23;;;;;;;4.67;4.17;;;18.60;62.90;;;;;;5073682;28;20452;-72
2022/06/17 03:28:51;;;;;;;9.10;5.07;;;18.50;61.90;;;;;;5073329;28;20432;-72
2022/06/17 03:31:23;;;;;;;5.00;3.90;;;18.40;62.10;;;;;;5073532;28;20470;-72
2022/06/17 03:33:55;;;;;;;4.70;4.30;;;18.30;62.20;;;;;;5073166;28;20468;-71
2022/06/17 03:36:28;;;;;;;7.30;4.40;;;18.30;62.50;;;;;;5073534;28;20433;-71
2022/06/17 03:38:57;;;;;;;5.93;4.20;;;18.20;62.50;;;;;;5073550;28;20425;-71
2022/06/17 03:41:28;;;;;;;4.20;3.90;;;18.20;62.70;;;;;;5073595;28;20617;-72
2022/06/17 03:44:01;;;;;;;4.50;4.13;;;18.30;63.00;;;;;;5073104;28;20456;-71
2022/06/17 03:46:33;;;;;;;5.37;4.87;;;18.20;63.10;;;;;;5073516;28;20443;-71
2022/06/17 03:49:04;;;;;;;4.70;4.13;;;18.30;63.40;;;;;;5073155;28;20797;-71
2022/06/17 03:51:32;;;;;;;4.77;4.40;;;18.30;63.70;;;;;;5073286;28;20433;-71
2022/06/17 03:53:58;;;;;;;4.30;3.90;;;18.30;63.90;;;;;;5073110;28;20460;-71
2022/06/17 03:56:28;;;;;;;9.37;3.87;;;18.30;64.20;;;;;;5073426;28;20449;-71
2022/06/17 03:58:59;;;;;;;3.87;3.47;;;18.30;64.50;;;;;;5073362;28;20444;-72
2022/06/17 04:01:32;;;;;;;5.37;3.70;;;18.30;64.50;;;;;;5073489;28;20452;-72
2022/06/17 04:04:04;;;;;;;4.20;3.67;;;18.30;64.70;;;;;;5073563;28;20444;-71
2022/06/17 04:06:37;;;;;;;5.30;4.83;;;18.30;64.70;;;;;;5077475;28;20429;-71
2022/06/17 04:09:06;;;;;;;5.73;4.13;;;18.40;65.80;;;;;;5077016;28;20440;-70
2022/06/17 04:11:38;;;;;;;5.23;4.10;;;18.40;65.10;;;;;;5077064;28;20444;-71
2022/06/17 04:14:15;;;;;;;6.00;4.90;;;18.40;65.30;;;;;;5077269;28;20902;-71
2022/06/17 04:16:47;;;;;;;9.23;4.47;;;18.40;65.40;;;;;;5077630;28;20446;-71
2022/06/17 04:19:16;;;;;;;5.53;4.23;;;18.40;65.60;;;;;;5077555;28;20508;-71
2022/06/17 04:21:42;;;;;;;8.40;4.70;;;18.40;66.00;;;;;;5078014;28;20811;-71
2022/06/17 04:24:15;;;;;;;6.43;4.87;;;18.40;66.10;;;;;;5078297;28;20440;-71
2022/06/17 04:26:45;;;;;;;6.40;4.90;;;18.40;66.40;;;;;;5079615;28;20429;-71
2022/06/17 04:29:19;;;;;;;4.90;3.97;;;18.40;66.60;;;;;;5081137;28;20437;-71
2022/06/17 04:31:51;;;;;;;5.50;4.67;;;18.40;66.70;;;;;;5081583;28;20458;-71
2022/06/17 04:34:19;;;;;;;6.00;4.80;;;18.50;67.00;;;;;;5076896;28;20429;-71
2022/06/17 04:36:49;;;;;;;4.87;4.33;;;18.50;67.30;;;;;;5076369;28;20817;-71
2022/06/17 04:39:24;;;;;;;7.07;5.13;;;18.60;67.40;;;;;;5076823;28;20531;-71
2022/06/17 04:41:54;;;;;;;5.97;4.13;;;18.60;67.80;;;;;;5076495;28;20837;-71
2022/06/17 04:44:23;;;;;;;8.87;5.10;;;18.70;68.30;;;;;;5076526;28;20433;-71
2022/06/17 04:46:54;;;;;;;8.20;4.67;;;18.70;68.50;;;;;;5076544;28;20444;-71
2022/06/17 04:49:23;;;;;;;6.90;5.40;;;18.80;68.90;;;;;;5076559;28;20440;-71
2022/06/17 04:51:52;;;;;;;5.20;4.50;;;18.80;69.10;;;;;;5077102;28;20471;-71
2022/06/17 04:54:19;;;;;;;5.70;5.20;;;18.90;69.70;;;;;;5076054;28;20479;-71
2022/06/17 04:56:49;;;;;;;6.27;5.67;;;18.90;70.30;;;;;;5076172;28;20455;-71
2022/06/17 04:59:32;;;;;;;7.37;5.30;;;19.00;70.90;;;;;;5076488;28;20441;-71
2022/06/17 05:01:59;;;;;;;5.30;4.10;;;19.10;71.50;;;;;;5076830;28;20471;-71
2022/06/17 05:04:27;;;;;;;9.07;4.50;;;19.10;71.70;;;;;;5076146;28;20451;-71
2022/06/17 05:06:54;;;;;;;9.97;5.50;;;19.30;71.40;;;;;;5076164;28;20518;-71
2022/06/17 05:09:25;;;;;;;8.23;5.60;;;19.30;71.00;;;;;;5076432;28;20456;-71
2022/06/17 05:11:56;;;;;;;7.10;5.30;;;19.50;71.00;;;;;;5076097;28;20469;-72
2022/06/17 05:14:28;;;;;;;6.60;6.00;;;19.60;70.70;;;;;;5076084;28;20516;-72
2022/06/17 05:16:58;;;;;;;7.50;5.37;;;19.70;70.40;;;;;;5075299;28;20439;-72
2022/06/17 05:19:25;;;;;;;7.10;5.77;;;19.70;70.60;;;;;;5076068;28;20425;-71
2022/06/17 05:21:52;;;;;;;7.13;6.10;;;19.80;71.10;;;;;;5075926;28;20859;-71
2022/06/17 05:24:19;;;;;;;7.37;6.17;;;19.90;70.10;;;;;;5075854;28;20443;-71
2022/06/17 05:26:46;;;;;;;6.50;5.90;;;19.90;69.00;;;;;;5075985;28;20809;-71
2022/06/17 05:29:12;;;;;;;8.17;5.57;;;20.00;67.90;;;;;;5075535;28;20813;-71
2022/06/17 05:31:40;;;;;;;10.73;5.70;;;20.00;67.90;;;;;;5075850;28;20451;-71
2022/06/17 05:34:08;;;;;;;7.10;5.50;;;20.10;68.20;;;;;;5075957;28;20451;-71
2022/06/17 05:36:35;;;;;;;8.00;5.30;;;20.20;67.70;;;;;;5075960;28;20444;-74
2022/06/17 05:39:01;;;;;;;6.63;5.40;;;20.40;67.30;;;;;;5075228;28;20463;-74
2022/06/17 05:41:28;;;;;;;7.70;5.40;;;20.50;66.80;;;;;;5075463;28;20444;-73
2022/06/17 05:43:55;;;;;;;11.40;4.20;;;20.70;66.40;;;;;;5075514;28;20449;-74
2022/06/17 05:46:22;;;;;;;10.20;5.23;;;20.90;65.60;;;;;;5075362;28;20515;-74
2022/06/17 05:48:48;;;;;;;9.57;5.67;;;21.10;65.50;;;;;;5075311;28;20448;-72
2022/06/17 05:51:17;;;;;;;6.60;5.57;;;21.20;65.90;;;;;;5075287;28;20451;-72
2022/06/17 05:53:43;;;;;;;7.90;5.73;;;21.30;65.50;;;;;;5074740;28;20480;-72
2022/06/17 05:56:10;;;;;;;8.20;5.00;;;21.40;65.00;;;;;;5075174;28;20433;-72
2022/06/17 05:58:37;;;;;;;8.63;5.90;;;21.40;65.10;;;;;;5074700;28;20929;-72
2022/06/17 06:01:04;;;;;;;6.37;5.60;;;21.50;65.40;;;;;;5074869;28;20457;-72
2022/06/17 06:03:31;;;;;;;8.13;5.30;;;21.50;65.20;;;;;;5074768;28;20837;-72
2022/06/17 06:05:57;;;;;;;9.70;4.73;;;21.60;65.20;;;;;;5074932;28;20550;-71
2022/06/17 06:08:26;;;;;;;7.43;4.80;;;21.60;65.50;;;;;;5074963;28;20441;-71
2022/06/17 06:10:53;;;;;;;7.87;4.60;;;21.70;64.90;;;;;;5074947;28;20451;-70
2022/06/17 06:13:22;;;;;;;8.10;4.37;;;21.70;64.20;;;;;;5074529;28;20830;-71
2022/06/17 06:15:50;;;;;;;7.30;3.93;;;21.80;62.40;;;;;;5074850;28;20543;-70
2022/06/17 06:18:19;;;;;;;7.37;4.70;;;21.90;62.20;;;;;;5074788;28;20455;-70
2022/06/17 06:20:47;;;;;;;4.00;3.60;;;22.00;62.00;;;;;;5074717;28;20902;-70
2022/06/17 06:23:14;;;;;;;3.70;2.80;;;22.10;57.70;;;;;;5074798;28;20468;-71
2022/06/17 06:25:43;;;;;;;5.50;2.97;;;22.40;56.70;;;;;;5074670;28;20556;-72
2022/06/17 06:28:12;;;;;;;5.20;3.27;;;22.60;55.90;;;;;;5073245;28;20957;-72
2022/06/17 06:30:39;;;;;;;5.80;3.00;;;22.80;54.60;;;;;;5074475;28;20449;-71
2022/06/17 06:33:06;;;;;;;5.50;3.00;;;23.00;53.60;;;;;;5074326;28;20977;-71
2022/06/17 06:35:36;;;;;;;3.30;3.00;;;23.20;52.90;;;;;;5074450;28;20459;-71
2022/06/17 06:38:03;;;;;;;9.23;3.07;;;23.30;52.40;;;;;;5074441;28;20452;-72
2022/06/17 06:40:30;;;;;;;4.73;2.70;;;23.40;52.10;;;;;;5074418;28;20453;-71
2022/06/17 06:42:58;;;;;;;5.03;2.70;;;23.60;51.80;;;;;;5074284;28;20468;-71
2022/06/17 06:45:28;;;;;;;3.23;2.60;;;23.80;51.40;;;;;;5073793;28;21066;-71
2022/06/17 06:47:57;;;;;;;3.80;2.30;;;23.90;50.70;;;;;;5074397;28;20445;-72
2022/06/17 06:50:26;;;;;;;2.83;2.23;;;23.90;50.10;;;;;;5074290;28;20467;-72
2022/06/17 06:52:53;;;;;;;6.40;1.70;;;24.00;50.00;;;;;;5074230;28;20487;-71
2022/06/17 06:55:20;;;;;;;8.33;2.17;;;24.20;49.60;;;;;;5073757;28;20452;-72
2022/06/17 06:57:51;;;;;;;3.40;2.57;;;24.30;48.50;;;;;;5074338;28;20441;-72
2022/06/17 07:00:24;;;;;;;4.43;2.00;;;24.40;48.40;;;;;;5074409;28;20444;-72
2022/06/17 07:02:50;;;;;;;4.50;2.43;;;24.50;47.90;;;;;;5073839;28;20974;-72
2022/06/17 07:05:18;;;;;;;2.30;1.50;;;24.60;47.60;;;;;;5075353;28;20849;-72
2022/06/17 07:07:45;;;;;;;7.17;2.40;;;24.70;47.30;;;;;;5075491;28;20972;-72
2022/06/17 07:10:14;;;;;;;2.40;1.87;;;24.70;46.30;;;;;;5076093;28;20433;-70
2022/06/17 07:12:41;;;;;;;2.73;1.77;;;24.80;46.70;;;;;;5075362;28;20477;-70
2022/06/17 07:15:10;;;;;;;3.53;2.00;;;24.90;46.40;;;;;;5092980;28;20464;-70
2022/06/17 07:17:38;;;;;;;2.97;1.83;;;24.90;46.20;;;;;;5093792;28;20937;-70
2022/06/17 07:20:06;;;;;;;11.43;2.33;;;25.00;46.10;;;;;;5094000;28;20451;-71
2022/06/17 07:22:35;;;;;;;3.53;2.30;;;25.00;45.80;;;;;;5093863;28;20475;-71
2022/06/17 07:25:02;;;;;;;2.60;1.87;;;25.10;45.80;;;;;;5094053;28;20527;-71
2022/06/17 07:27:29;;;;;;;2.00;1.90;;;25.10;45.50;;;;;;5093928;28;20451;-70
2022/06/17 07:29:56;;;;;;;5.03;1.90;;;25.10;45.30;;;;;;5093402;28;20447;-70
2022/06/17 07:32:22;;;;;;;3.37;2.00;;;25.20;45.00;;;;;;5093666;28;20474;-70
2022/06/17 07:34:50;;;;;;;3.10;1.83;;;25.40;44.90;;;;;;5093722;28;20447;-70
2022/06/17 07:40:04;;;;;;;2.27;2.07;;;25.70;44.40;;;;;;5093300;28;20482;-70
2022/06/17 07:42:38;;;;;;;2.90;1.93;;;25.90;43.90;;;;;;5093570;28;20517;-70
2022/06/17 07:45:08;;;;;;;3.60;2.10;;;26.00;43.40;;;;;;5093648;28;20823;-70
2022/06/17 07:47:35;;;;;;;2.50;1.83;;;26.10;42.90;;;;;;5093647;28;20435;-70
2022/06/17 07:50:06;;;;;;;2.00;1.83;;;26.10;43.00;;;;;;5093316;28;20444;-70
2022/06/17 07:52:33;;;;;;;2.23;2.00;;;26.10;42.80;;;;;;5093526;28;20471;-70
2022/06/17 07:54:59;;;;;;;3.23;2.10;;;26.30;42.80;;;;;;5079260;28;20479;-70
2022/06/17 07:57:26;;;;;;;5.90;2.00;;;26.30;42.50;;;;;;5073721;28;20437;-71
2022/06/17 07:59:53;;;;;;;2.73;1.97;;;26.30;42.50;;;;;;5073565;28;20429;-71
2022/06/17 08:02:20;;;;;;;1.83;1.70;;;26.30;42.50;;;;;;5074065;28;20468;-70
2022/06/17 08:04:46;;;;;;;2.30;1.73;;;26.30;42.30;;;;;;5073545;28;20437;-70
2022/06/17 08:07:15;;;;;;;5.37;2.53;;;26.30;42.20;;;;;;5073074;28;20488;-71
2022/06/17 08:09:42;;;;;;;3.70;2.10;;;26.40;42.20;;;;;;5073451;28;20539;-71
2022/06/17 08:12:13;;;;;;;2.07;1.80;;;26.50;42.20;;;;;;5073250;28;20471;-71
2022/06/17 08:14:43;;;;;;;4.23;1.67;;;26.60;41.80;;;;;;5073386;28;20425;-71
2022/06/17 08:17:12;;;;;;;2.20;2.00;;;26.70;40.90;;;;;;5073664;28;20437;-71
2022/06/17 08:19:39;;;;;;;2.40;1.97;;;26.70;41.10;;;;;;5073213;28;20459;-71
2022/06/17 08:22:06;;;;;;;5.60;2.40;;;26.80;40.50;;;;;;5073048;28;20530;-71
2022/06/17 08:24:37;;;;;;;3.23;2.10;;;26.80;40.50;;;;;;5073278;28;20441;-71
2022/06/17 08:27:05;;;;;;;2.03;1.80;;;26.80;41.00;;;;;;5073196;28;20487;-71
2022/06/17 08:29:32;;;;;;;3.93;2.10;;;26.80;40.80;;;;;;5072881;28;20448;-70
2022/06/17 08:32:45;;;;;;;2.97;2.20;;;27.00;40.90;;;;;;5073733;28;20812;-71
2022/06/17 08:34:46;;;;;;;5.03;1.80;;;27.00;40.40;;;;;;5072406;28;20589;-71
2022/06/17 08:37:15;;;;;;;3.63;2.00;;;27.20;40.60;;;;;;5072887;28;20432;-71
2022/06/17 08:39:46;;;;;;;2.10;2.00;;;27.40;40.10;;;;;;5072737;28;20448;-71
2022/06/17 08:42:25;;;;;;;2.27;2.07;;;27.60;39.20;;;;;;5072908;28;20547;-71
2022/06/17 08:45:00;;;;;;;2.83;2.20;;;27.60;39.00;;;;;;5072841;28;20435;-71
2022/06/17 08:47:43;;;;;;;4.37;2.40;;;27.60;38.70;;;;;;5073742;28;20468;-71
2022/06/17 08:50:27;;;;;;;2.20;2.00;;;27.70;39.00;;;;;;5072943;28;20437;-72
2022/06/17 08:53:17;;;;;;;5.43;2.37;;;27.80;38.60;;;;;;5075610;28;20468;-70
2022/06/17 08:55:49;;;;;;;4.33;2.40;;;27.90;38.10;;;;;;5053790;28;20919;-70
2022/06/17 08:58:26;;;;;;;3.93;2.30;;;28.10;37.60;;;;;;5076526;28;20530;-70
2022/06/17 09:01:03;;;;;;;3.47;2.23;;;28.30;37.50;;;;;;5076314;28;20438;-70
2022/06/17 09:03:46;;;;;;;4.17;2.23;;;28.40;37.20;;;;;;5076349;28;20468;-71
2022/06/17 09:06:22;;;;;;;5.10;2.90;;;28.40;37.40;;;;;;5075579;28;20468;-71
2022/06/17 09:09:03;;;;;;;4.57;2.60;;;28.50;37.40;;;;;;5093275;28;20466;-71
2022/06/17 09:11:41;;;;;;;3.13;2.27;;;28.60;37.10;;;;;;5096305;28;20909;-70
2022/06/17 09:14:31;;;;;;;3.00;2.20;;;28.60;37.00;;;;;;5096473;28;20432;-69
2022/06/17 09:17:10;;;;;;;4.10;1.93;;;28.80;37.00;;;;;;5096356;28;20442;-70
2022/06/17 09:19:42;;;;;;;2.77;2.43;;;29.00;36.50;;;;;;5096418;28;20434;-70
2022/06/17 09:22:13;;;;;;;4.03;2.97;;;29.20;36.50;;;;;;5096269;28;20558;-70
2022/06/17 09:24:42;;;;;;;7.03;2.37;;;29.50;36.40;;;;;;5096191;28;20428;-69
2022/06/17 09:27:16;;;;;;;3.43;2.33;;;29.70;35.70;;;;;;5096089;28;20488;-69
2022/06/17 09:29:50;;;;;;;3.90;2.53;;;29.70;35.70;;;;;;5095836;28;20427;-69
2022/06/17 09:32:21;;;;;;;2.87;2.23;;;29.80;35.10;;;;;;5096223;28;20456;-69
2022/06/17 09:34:54;;;;;;;3.83;2.33;;;30.00;34.90;;;;;;5096129;28;20434;-69
2022/06/17 09:37:28;;;;;;;3.30;2.27;;;30.30;34.40;;;;;;5095988;28;20432;-69
2022/06/17 09:40:00;;;;;;;4.70;2.20;;;30.40;33.00;;;;;;5096304;28;20435;-69
2022/06/17 09:42:34;;;;;;;3.10;2.50;;;30.50;32.30;;;;;;5096320;28;20848;-70
2022/06/17 09:45:06;;;;;;;4.20;2.60;;;30.70;32.80;;;;;;5097048;28;20428;-70
2022/06/17 09:47:37;;;;;;;3.30;2.30;;;30.90;32.30;;;;;;5097812;28;20464;-71
2022/06/17 09:50:10;;;;;;;2.50;1.70;;;31.10;31.20;;;;;;5098706;28;20815;-71
2022/06/17 09:52:41;;;;;;;5.90;2.20;;;31.20;31.00;;;;;;5095715;28;20460;-70
2022/06/17 09:55:16;;;;;;;2.20;2.00;;;31.60;30.60;;;;;;5095245;28;20459;-72
2022/06/17 09:57:50;;;;;;;3.83;2.70;;;32.00;30.00;;;;;;5095302;28;20996;-71
2022/06/17 10:00:21;;;;;;;4.43;2.37;;;32.50;30.00;;;;;;5095588;28;20802;-72
2022/06/17 10:02:51;;;;;;;3.60;2.50;;;33.00;29.50;;;;;;5095183;28;20471;-72
2022/06/17 10:05:32;;;;;;;2.50;2.20;;;33.20;28.60;;;;;;5095789;28;20439;-70
2022/06/17 10:08:06;;;;;;;4.27;2.63;;;33.50;28.20;;;;;;5095363;28;20490;-72
2022/06/17 10:10:43;;;;;;;4.80;2.57;;;33.80;27.90;;;;;;5095057;28;20909;-72
2022/06/17 10:13:22;;;;;;;4.00;2.43;;;34.00;27.60;;;;;;5094929;28;20830;-71
2022/06/17 10:18:46;;;;;;;2.30;2.10;;;34.50;26.90;;;;;;5095314;28;20895;-72
2022/06/17 10:21:28;;;;;;;2.87;2.00;;;35.00;26.90;;;;;;5095095;28;20423;-70
2022/06/17 10:24:02;;;;;;;5.67;2.17;;;35.40;25.70;;;;;;5095128;28;20431;-71
2022/06/17 10:26:45;;;;;;;2.57;2.30;;;35.70;25.70;;;;;;5094703;28;20980;-72
2022/06/17 10:29:42;;;;;;;3.42;2.20;;;36.20;25.70;;;;;;5093904;28;20794;-70
2022/06/17 10:32:10;;;;;;;3.13;2.10;;;37.00;24.10;;;;;;5092629;28;20236;-70
2022/06/17 10:34:44;;;;;;;4.27;2.40;;;37.30;23.70;;;;;;5094871;28;20451;-70
2022/06/17 10:37:12;;;;;;;3.57;1.90;;;37.90;24.10;;;;;;5094735;28;20192;-71
2022/06/17 10:39:40;;;;;;;2.43;2.13;;;38.40;22.50;;;;;;5094825;28;20201;-71
2022/06/17 10:42:08;;;;;;;3.30;2.10;;;38.50;21.60;;;;;;5094290;28;20759;-71
2022/06/17 10:44:35;;;;;;;2.23;1.83;;;38.50;21.30;;;;;;5094774;28;20193;-71
2022/06/17 10:47:17;;;;;;;1.90;1.77;;;38.40;21.60;;;;;;5094624;28;20227;-71
2022/06/17 10:49:49;;;;;;;2.60;1.80;;;38.40;21.20;;;;;;5094806;28;20189;-71
2022/06/17 10:52:21;;;;;;;6.20;2.17;;;38.50;22.20;;;;;;5094483;28;20221;-72
2022/06/17 10:54:51;;;;;;;3.58;1.88;;;38.70;23.10;;;;;;5082168;28;20250;-72
2022/06/17 10:57:25;;;;;;;2.35;2.15;;;38.80;22.00;;;;;;5074276;28;20193;-71
2022/06/17 10:59:52;;;;;;;3.38;1.58;;;38.90;21.50;;;;;;5074088;28;20217;-71
2022/06/17 11:02:29;;;;;;;2.33;1.63;;;39.00;20.60;;;;;;5074156;28;20221;-72
2022/06/17 11:04:58;;;;;;;4.22;1.85;;;39.10;19.80;;;;;;5073746;28;20654;-72
2022/06/17 11:07:30;;;;;;;2.70;1.65;;;39.30;19.90;;;;;;5074004;28;20225;-71
2022/06/17 11:10:01;;;;;;;3.25;1.42;;;39.50;19.60;;;;;;5073788;28;20186;-72
2022/06/17 11:12:34;;;;;;;1.80;1.60;;;39.70;19.10;;;;;;5073494;28;20227;-72
2022/06/17 11:15:05;;;;;;;2.97;1.67;;;39.90;19.00;;;;;;5073351;28;20694;-72
2022/06/17 11:17:36;;;;;;;2.50;1.70;;;39.90;18.60;;;;;;5073509;28;20631;-72
2022/06/17 11:20:06;;;;;;;2.22;2.03;;;40.10;19.00;;;;;;5073853;28;20197;-71
2022/06/17 11:22:36;;;;;;;1.67;1.38;;;40.00;18.80;;;;;;5073713;28;20217;-72
2022/06/17 11:25:07;;;;;;;5.53;1.70;;;40.30;18.70;;;;;;5074001;28;20292;-72
2022/06/17 11:27:39;;;;;;;5.68;1.50;;;40.60;18.40;;;;;;5073903;28;20210;-71
2022/06/17 11:30:28;;;;;;;1.40;1.30;;;40.90;18.80;;;;;;5074037;28;20190;-71
2022/06/17 11:32:57;;;;;;;1.73;1.63;;;40.90;18.00;;;;;;5073564;28;20574;-71
2022/06/17 11:35:45;;;;;;;1.77;1.67;;;40.90;18.20;;;;;;5073999;28;20282;-72
2022/06/17 11:38:15;;;;;;;1.83;1.55;;;40.80;17.50;;;;;;5068326;28;20663;-72
2022/06/17 11:40:51;;;;;;;2.05;1.40;;;40.90;18.00;;;;;;5073872;28;20201;-71
2022/06/17 11:43:31;;;;;;;1.67;1.27;;;41.00;17.20;;;;;;5073783;28;20232;-71
2022/06/17 11:46:06;;;;;;;2.42;1.50;;;41.10;17.20;;;;;;5074137;28;20352;-72
2022/06/17 11:48:36;;;;;;;1.63;1.40;;;41.50;17.00;;;;;;5073955;28;20242;-73
2022/06/17 11:51:05;;;;;;;1.83;1.20;;;41.90;17.60;;;;;;5073711;28;20689;-72
2022/06/17 11:53:41;;;;;;;1.50;1.25;;;42.50;16.50;;;;;;5073561;28;20606;-71
2022/06/17 11:56:09;;;;;;;2.65;1.42;;;43.10;15.00;;;;;;5074784;28;20193;-72
2022/06/17 11:58:54;;;;;;;4.43;1.50;;;43.60;14.80;;;;;;5074678;28;20204;-72
2022/06/17 12:01:20;;;;;;;1.65;1.13;;;44.10;15.70;;;;;;5073602;28;20190;-72
2022/06/17 12:03:48;;;;;;;2.22;1.10;;;44.80;16.50;;;;;;5073589;28;20221;-72
2022/06/17 12:06:27;;;;;;;3.03;1.20;;;45.50;14.30;;;;;;5073355;28;20209;-72
2022/06/17 12:09:02;;;;;;;2.40;1.30;;;45.90;14.30;;;;;;5073555;28;20190;-72
2022/06/17 12:11:37;;;;;;;2.45;1.25;;;46.30;13.90;;;;;;5073783;28;20186;-72
2022/06/17 12:14:11;;;;;;;1.80;1.02;;;46.60;13.80;;;;;;5073780;28;20280;-72
2022/06/17 12:16:41;;;;;;;1.23;0.90;;;46.90;13.70;;;;;;5073802;28;20189;-72
2022/06/17 12:19:14;;;;;;;2.28;1.13;;;47.00;12.90;;;;;;5074628;28;20208;-72
2022/06/17 12:21:51;;;;;;;4.90;1.25;;;46.90;12.70;;;;;;5076161;28;20188;-72
2022/06/17 12:24:24;;;;;;;1.40;1.30;;;47.00;12.80;;;;;;5077236;28;20190;-72
2022/06/17 12:26:58;;;;;;;3.67;2.00;;;47.20;13.10;;;;;;5079638;28;20206;-72
2022/06/17 12:29:29;;;;;;;2.58;1.13;;;47.20;13.30;;;;;;5076954;28;20185;-72
2022/06/17 12:32:05;;;;;;;2.40;1.33;;;47.40;13.40;;;;;;5076965;28;20226;-71
2022/06/17 12:34:38;;;;;;;1.60;1.40;;;47.60;14.30;;;;;;5076578;28;20560;-71
2022/06/17 12:37:12;;;;;;;2.30;1.23;;;47.80;13.20;;;;;;5076645;28;20698;-71
2022/06/17 12:39:47;;;;;;;2.13;1.10;;;48.10;12.50;;;;;;5076941;28;20211;-70
2022/06/17 12:42:23;;;;;;;3.55;1.27;;;48.10;12.50;;;;;;5076719;28;20225;-71
2022/06/17 12:45:01;;;;;;;3.22;1.35;;;48.40;13.50;;;;;;5076974;28;20185;-71
2022/06/17 12:47:37;;;;;;;2.33;1.20;;;48.50;12.50;;;;;;5076683;28;20190;-71
2022/06/17 12:53:14;;;;;;;2.30;1.23;;;49.00;12.50;;;;;;5076466;28;20221;-71
2022/06/17 12:55:56;;;;;;;1.77;1.40;;;49.20;12.40;;;;;;5076617;28;20193;-71
2022/06/17 12:58:35;;;;;;;2.63;1.55;;;49.40;12.50;;;;;;5076403;28;20210;-71
2022/06/17 13:01:07;;;;;;;3.00;1.40;;;49.50;11.90;;;;;;5076554;28;20186;-70
2022/06/17 13:04:06;;;;;;;2.03;1.33;;;49.90;13.40;;;;;;5076199;28;20218;-71
2022/06/17 13:06:48;;;;;;;6.05;1.35;;;50.40;12.90;;;;;;5076067;28;20186;-71
2022/06/17 13:09:23;;;;;;;3.38;1.23;;;50.60;11.20;;;;;;5076274;28;20190;-71
2022/06/17 13:12:02;;;;;;;2.22;1.38;;;50.70;11.20;;;;;;5076218;28;20233;-71
2022/06/17 13:14:40;;;;;;;2.90;1.73;;;50.80;11.00;;;;;;5076051;28;20558;-71
2022/06/17 13:17:13;;;;;;;1.83;1.35;;;50.80;11.70;;;;;;5076217;28;20206;-71